Time;durP1;ratioP1;P1;durP2;ratioP2;P2;SDS_P1;SDS_P2;PMS_P1;PMS_P2;Temp;Humidity;BMP_temperature;BMP_pressure;BME280_temperature;BME280_humidity;BME280_pressure;Samples;Min_cycle;Max_cycle;Signal;HPM_P1;HPM_P2
2024/01/20 00:00:32;;;;;;;33.53;22.37;;;-0.90;99.90;;;;;;5099980;28;20197;-62
2024/01/20 00:02:58;;;;;;;37.03;22.87;;;-0.90;99.90;;;;;;5114903;28;20200;-62
2024/01/20 00:05:24;;;;;;;35.67;21.87;;;-0.90;99.90;;;;;;5107213;27;20177;-62
2024/01/20 00:07:49;;;;;;;34.13;22.57;;;-1.00;99.90;;;;;;5100881;28;20199;-62
2024/01/20 00:10:15;;;;;;;29.87;20.40;;;-1.00;99.90;;;;;;5102787;28;20187;-62
2024/01/20 00:12:42;;;;;;;30.03;21.33;;;-1.00;99.90;;;;;;5100374;28;20216;-62
2024/01/20 00:15:09;;;;;;;34.47;21.63;;;-1.00;99.90;;;;;;5097444;28;20223;-60
2024/01/20 00:17:36;;;;;;;32.83;21.70;;;-1.00;99.90;;;;;;5112790;28;20199;-62
2024/01/20 00:20:04;;;;;;;37.40;22.10;;;-1.00;99.90;;;;;;5111198;28;20176;-62
2024/01/20 00:22:29;;;;;;;31.97;20.77;;;-1.00;99.90;;;;;;5097797;28;20200;-61
2024/01/20 00:24:59;;;;;;;33.13;21.03;;;-1.00;99.90;;;;;;5098267;28;20650;-62
2024/01/20 00:27:25;;;;;;;29.33;20.80;;;-1.10;99.90;;;;;;5103073;28;20281;-62
2024/01/20 00:29:51;;;;;;;33.23;20.40;;;-1.10;99.90;;;;;;5096886;28;20528;-62
2024/01/20 00:32:17;;;;;;;27.80;20.73;;;-1.20;99.90;;;;;;5112263;28;20191;-62
2024/01/20 00:34:43;;;;;;;26.57;19.53;;;-1.20;99.90;;;;;;5115530;28;20589;-62
2024/01/20 00:37:08;;;;;;;28.93;20.37;;;-1.20;99.90;;;;;;5102947;28;20197;-60
2024/01/20 00:39:34;;;;;;;27.00;19.90;;;-1.30;99.90;;;;;;5103696;28;20664;-60
2024/01/20 00:42:00;;;;;;;36.60;19.57;;;-1.40;99.90;;;;;;5105342;28;20699;-62
2024/01/20 00:44:25;;;;;;;25.20;19.13;;;-1.30;99.90;;;;;;5096572;28;20181;-61
2024/01/20 00:46:51;;;;;;;29.13;20.07;;;-1.40;99.90;;;;;;5103791;28;20192;-62
2024/01/20 00:49:17;;;;;;;33.43;19.60;;;-1.40;99.90;;;;;;5109452;28;20726;-61
2024/01/20 00:51:43;;;;;;;24.23;17.07;;;-1.40;99.90;;;;;;5116257;27;20188;-62
2024/01/20 00:54:08;;;;;;;26.77;18.17;;;-1.40;99.90;;;;;;5108972;28;20184;-62
2024/01/20 00:56:34;;;;;;;22.93;17.00;;;-1.40;99.90;;;;;;5113230;28;20179;-62
2024/01/20 00:59:00;;;;;;;24.47;17.63;;;-1.50;99.90;;;;;;5098546;28;20172;-62
2024/01/20 01:01:26;;;;;;;28.40;17.27;;;-1.50;99.90;;;;;;5106142;28;20212;-62
2024/01/20 01:03:51;;;;;;;22.63;17.43;;;-1.50;99.90;;;;;;5116271;28;20173;-62
2024/01/20 01:06:17;;;;;;;22.93;16.47;;;-1.50;99.90;;;;;;5102748;28;20268;-62
2024/01/20 01:08:43;;;;;;;20.23;16.57;;;-1.50;99.90;;;;;;5101049;28;20200;-60
2024/01/20 01:11:09;;;;;;;26.00;17.33;;;-1.50;99.90;;;;;;5106733;28;20185;-60
2024/01/20 01:13:37;;;;;;;26.63;16.93;;;-1.50;99.90;;;;;;5108607;28;20176;-62
2024/01/20 01:16:04;;;;;;;28.87;18.07;;;-1.50;99.90;;;;;;5110753;28;20172;-62
2024/01/20 01:18:30;;;;;;;21.50;17.30;;;-1.50;99.90;;;;;;5100205;28;20257;-62
2024/01/20 01:20:55;;;;;;;20.50;16.50;;;-1.50;99.90;;;;;;5115315;28;20204;-62
2024/01/20 01:23:21;;;;;;;28.57;17.70;;;-1.50;99.90;;;;;;5098976;28;20193;-61
2024/01/20 01:25:47;;;;;;;23.77;16.77;;;-1.50;99.90;;;;;;5094946;28;20202;-61
2024/01/20 01:28:13;;;;;;;20.50;16.57;;;-1.50;99.90;;;;;;5099171;28;20565;-62
2024/01/20 01:30:39;;;;;;;17.90;16.00;;;-1.50;99.90;;;;;;5109134;28;20544;-61
2024/01/20 01:33:04;;;;;;;21.03;16.37;;;-1.50;99.90;;;;;;5095459;28;20181;-62
2024/01/20 01:35:30;;;;;;;22.23;16.13;;;-1.50;99.90;;;;;;5094865;28;20242;-61
2024/01/20 01:37:58;;;;;;;20.80;17.13;;;-1.50;99.90;;;;;;5106546;28;20205;-60
2024/01/20 01:40:25;;;;;;;20.00;16.80;;;-1.60;99.90;;;;;;5097990;28;20707;-62
2024/01/20 01:42:56;;;;;;;20.47;16.40;;;-1.60;99.90;;;;;;5097169;28;20174;-61
2024/01/20 01:45:23;;;;;;;21.10;16.57;;;-1.60;99.90;;;;;;5095218;28;20180;-61
2024/01/20 01:47:50;;;;;;;19.77;15.70;;;-1.60;99.90;;;;;;5095663;28;20620;-60
2024/01/20 01:50:16;;;;;;;23.17;16.70;;;-1.60;99.90;;;;;;5069501;28;1270104;-62
2024/01/20 01:52:42;;;;;;;21.83;17.47;;;-1.70;99.90;;;;;;5109286;28;20166;-62
2024/01/20 01:55:09;;;;;;;20.83;15.83;;;-1.70;99.90;;;;;;5096904;28;20677;-62
2024/01/20 01:57:35;;;;;;;22.83;16.93;;;-1.70;99.90;;;;;;5097047;28;20669;-60
2024/01/20 02:00:03;;;;;;;22.87;15.67;;;-1.70;99.90;;;;;;5113917;28;20193;-61
2024/01/20 02:02:28;;;;;;;17.97;15.73;;;-1.80;99.90;;;;;;5109392;28;20267;-62
2024/01/20 02:04:54;;;;;;;20.10;15.70;;;-1.80;99.90;;;;;;5115735;27;20259;-62
2024/01/20 02:07:21;;;;;;;19.67;16.37;;;-1.80;99.90;;;;;;5112066;28;20231;-62
2024/01/20 02:09:46;;;;;;;20.27;16.70;;;-1.90;99.90;;;;;;5109425;28;20177;-61
2024/01/20 02:12:14;;;;;;;21.97;15.97;;;-1.90;99.90;;;;;;5110577;28;20229;-61
2024/01/20 02:14:42;;;;;;;18.70;15.80;;;-2.00;99.90;;;;;;5115478;28;20709;-61
2024/01/20 02:17:08;;;;;;;21.27;16.03;;;-2.00;99.90;;;;;;5113734;27;20575;-61
2024/01/20 02:19:38;;;;;;;25.80;16.77;;;-2.00;99.90;;;;;;5114605;28;20295;-62
2024/01/20 02:22:12;;;;;;;22.93;17.43;;;-2.00;99.90;;;;;;5104416;28;20224;-61
2024/01/20 02:24:39;;;;;;;22.00;16.57;;;-2.00;99.90;;;;;;5095417;28;20252;-61
2024/01/20 02:27:06;;;;;;;20.40;16.07;;;-2.00;99.90;;;;;;5108241;28;20208;-62
2024/01/20 02:29:32;;;;;;;18.50;16.20;;;-2.00;99.90;;;;;;5112457;28;20187;-62
2024/01/20 02:31:57;;;;;;;23.20;16.30;;;-2.00;99.90;;;;;;5095836;28;20184;-62
2024/01/20 02:34:23;;;;;;;21.53;15.97;;;-2.10;99.90;;;;;;5093266;28;20623;-62
2024/01/20 02:36:51;;;;;;;20.53;15.83;;;-2.10;99.90;;;;;;5095946;28;20205;-62
2024/01/20 02:39:17;;;;;;;23.37;16.07;;;-2.10;99.90;;;;;;5107001;28;20196;-61
2024/01/20 02:41:43;;;;;;;18.60;15.70;;;-2.10;99.90;;;;;;5097464;28;20196;-62
2024/01/20 02:44:09;;;;;;;21.30;15.87;;;-2.10;99.90;;;;;;5108486;28;20191;-61
2024/01/20 02:46:34;;;;;;;18.20;15.07;;;-2.10;99.90;;;;;;5113325;28;20633;-62
2024/01/20 02:49:00;;;;;;;26.10;17.03;;;-2.00;99.90;;;;;;5112877;28;20649;-61
2024/01/20 02:51:26;;;;;;;20.77;16.67;;;-2.00;99.90;;;;;;5109162;28;20197;-61
2024/01/20 02:53:52;;;;;;;18.67;15.77;;;-2.00;99.90;;;;;;5101806;28;20297;-62
2024/01/20 02:56:17;;;;;;;17.63;15.83;;;-2.00;99.90;;;;;;5097099;28;20256;-62
2024/01/20 02:58:43;;;;;;;28.80;17.60;;;-2.10;99.90;;;;;;5113016;28;20275;-62
2024/01/20 03:01:09;;;;;;;20.47;16.10;;;-2.10;99.90;;;;;;5101663;28;20205;-61
2024/01/20 03:03:35;;;;;;;23.37;16.53;;;-2.10;99.90;;;;;;5095570;28;20189;-61
2024/01/20 03:06:00;;;;;;;22.67;16.87;;;-2.10;99.90;;;;;;5098693;27;20667;-61
2024/01/20 03:08:26;;;;;;;19.57;15.77;;;-2.10;99.90;;;;;;5109840;28;20306;-60
2024/01/20 03:10:52;;;;;;;24.57;15.87;;;-2.10;99.90;;;;;;5095718;28;20197;-61
2024/01/20 03:13:18;;;;;;;20.10;15.73;;;-2.10;99.90;;;;;;5100436;28;20175;-62
2024/01/20 03:15:43;;;;;;;18.33;16.37;;;-2.10;99.90;;;;;;5105972;28;20310;-62
2024/01/20 03:18:10;;;;;;;20.27;15.87;;;-2.10;99.90;;;;;;5110739;28;20197;-62
2024/01/20 03:20:36;;;;;;;17.83;15.33;;;-2.10;99.90;;;;;;5094291;28;20199;-62
2024/01/20 03:23:02;;;;;;;19.60;15.70;;;-2.10;99.90;;;;;;5100734;28;20173;-61
2024/01/20 03:25:28;;;;;;;24.97;17.17;;;-2.10;99.90;;;;;;5101439;28;20191;-62
2024/01/20 03:27:54;;;;;;;20.57;16.27;;;-2.20;99.90;;;;;;5098399;28;20193;-61
2024/01/20 03:30:20;;;;;;;21.57;16.43;;;-2.20;99.90;;;;;;5101224;28;20288;-62
2024/01/20 03:32:47;;;;;;;26.37;16.90;;;-2.30;99.90;;;;;;5099301;28;20642;-62
2024/01/20 03:35:12;;;;;;;17.97;15.70;;;-2.30;99.90;;;;;;5099228;28;20222;-61
2024/01/20 03:37:38;;;;;;;26.07;16.40;;;-2.30;99.90;;;;;;5103799;28;20189;-61
2024/01/20 03:40:05;;;;;;;19.10;15.80;;;-2.30;99.90;;;;;;5100628;28;20234;-61
2024/01/20 03:42:30;;;;;;;21.37;16.90;;;-2.20;99.90;;;;;;5098384;28;20181;-62
2024/01/20 03:44:56;;;;;;;23.70;15.63;;;-2.30;99.90;;;;;;5093786;28;20169;-61
2024/01/20 03:47:22;;;;;;;21.90;17.20;;;-2.20;99.90;;;;;;5094066;28;20204;-61
2024/01/20 03:49:48;;;;;;;18.03;16.17;;;-2.20;99.90;;;;;;5094211;28;20157;-61
2024/01/20 03:52:14;;;;;;;18.17;15.77;;;-2.20;99.90;;;;;;5093647;28;20208;-62
2024/01/20 03:54:40;;;;;;;23.10;15.67;;;-2.20;99.90;;;;;;5093811;28;20766;-61
2024/01/20 03:57:05;;;;;;;23.10;17.23;;;-2.20;99.90;;;;;;5093840;28;20742;-62
2024/01/20 03:59:31;;;;;;;19.47;15.17;;;-2.30;99.90;;;;;;5093544;28;20173;-61
2024/01/20 04:01:57;;;;;;;20.47;16.10;;;-2.30;99.90;;;;;;5093692;28;20212;-61
2024/01/20 04:04:23;;;;;;;19.47;15.37;;;-2.40;99.90;;;;;;5093625;28;20181;-62
2024/01/20 04:06:49;;;;;;;19.43;15.93;;;-2.40;99.90;;;;;;5093692;28;20196;-62
2024/01/20 04:09:14;;;;;;;20.73;15.27;;;-2.40;99.90;;;;;;5093711;28;20173;-62
2024/01/20 04:11:40;;;;;;;19.90;15.47;;;-2.50;99.90;;;;;;5093595;28;20169;-62
2024/01/20 04:14:06;;;;;;;17.40;15.03;;;-2.50;99.90;;;;;;5093490;28;20527;-61
2024/01/20 04:16:32;;;;;;;24.40;15.17;;;-2.50;99.90;;;;;;5093199;28;20185;-62
2024/01/20 04:18:58;;;;;;;21.50;16.23;;;-2.50;99.90;;;;;;5093671;28;20181;-62
2024/01/20 04:21:23;;;;;;;20.47;16.10;;;-2.50;99.90;;;;;;5093279;28;20197;-62
2024/01/20 04:23:49;;;;;;;17.77;15.93;;;-2.50;99.90;;;;;;5093905;28;20181;-62
2024/01/20 04:26:16;;;;;;;18.13;15.07;;;-2.50;99.90;;;;;;5093576;28;20197;-62
2024/01/20 04:28:42;;;;;;;17.53;14.83;;;-2.60;99.90;;;;;;5093299;28;20598;-62
2024/01/20 04:31:08;;;;;;;22.27;16.57;;;-2.60;99.90;;;;;;5093057;28;20185;-61
2024/01/20 04:33:36;;;;;;;24.80;16.30;;;-2.60;99.90;;;;;;5094094;28;20177;-61
2024/01/20 04:36:03;;;;;;;18.43;15.13;;;-2.60;99.90;;;;;;5092912;28;20578;-62
2024/01/20 04:38:29;;;;;;;22.40;15.60;;;-2.60;99.90;;;;;;5092886;28;20201;-62
2024/01/20 04:40:54;;;;;;;20.13;15.13;;;-2.60;99.90;;;;;;5092922;28;20600;-62
2024/01/20 04:43:20;;;;;;;16.90;14.43;;;-2.60;99.90;;;;;;5092746;28;20177;-61
2024/01/20 04:45:46;;;;;;;20.57;15.13;;;-2.60;99.90;;;;;;5095531;28;20207;-62
2024/01/20 04:48:12;;;;;;;17.50;14.87;;;-2.60;99.90;;;;;;5096591;28;20222;-62
2024/01/20 04:50:37;;;;;;;18.47;15.00;;;-2.60;99.90;;;;;;5097134;28;20220;-62
2024/01/20 04:53:03;;;;;;;25.83;16.37;;;-2.70;99.90;;;;;;5096800;28;20256;-62
2024/01/20 04:55:29;;;;;;;16.57;14.87;;;-2.70;99.90;;;;;;5096424;28;20548;-61
2024/01/20 04:57:55;;;;;;;19.10;15.07;;;-2.70;99.90;;;;;;5096314;28;20327;-62
2024/01/20 05:00:21;;;;;;;20.67;16.37;;;-2.70;99.90;;;;;;5096271;28;20181;-62
2024/01/20 05:02:46;;;;;;;21.70;15.17;;;-2.70;99.90;;;;;;5096749;28;20691;-62
2024/01/20 05:05:12;;;;;;;18.43;14.73;;;-2.80;99.90;;;;;;5096609;28;20256;-62
2024/01/20 05:07:38;;;;;;;18.40;16.13;;;-2.80;99.90;;;;;;5096641;28;20193;-62
2024/01/20 05:10:04;;;;;;;20.23;15.60;;;-2.80;99.90;;;;;;5096091;28;20215;-62
2024/01/20 05:12:30;;;;;;;20.77;15.37;;;-2.80;99.90;;;;;;5096174;28;20173;-62
2024/01/20 05:14:57;;;;;;;24.07;15.57;;;-2.90;99.90;;;;;;5096025;28;20180;-62
2024/01/20 05:17:23;;;;;;;21.30;15.77;;;-2.80;99.90;;;;;;5096010;28;20189;-62
2024/01/20 05:19:48;;;;;;;17.93;16.10;;;-2.90;99.90;;;;;;5096066;28;20223;-62
2024/01/20 05:22:16;;;;;;;21.50;16.73;;;-2.90;99.90;;;;;;5096204;28;20196;-62
2024/01/20 05:24:42;;;;;;;22.13;16.03;;;-2.80;99.90;;;;;;5096109;28;20222;-62
2024/01/20 05:27:07;;;;;;;16.40;14.60;;;-2.80;99.90;;;;;;5095901;28;20197;-62
2024/01/20 05:29:33;;;;;;;21.27;15.47;;;-2.80;99.90;;;;;;5095958;28;20252;-62
2024/01/20 05:32:00;;;;;;;22.90;15.67;;;-2.80;99.90;;;;;;5095400;28;20189;-62
2024/01/20 05:34:26;;;;;;;20.47;15.50;;;-2.80;99.90;;;;;;5095760;28;20188;-61
2024/01/20 05:36:52;;;;;;;19.53;15.27;;;-2.80;99.90;;;;;;5096034;28;20201;-62
2024/01/20 05:39:17;;;;;;;20.03;15.10;;;-2.80;99.90;;;;;;5096818;28;20197;-61
2024/01/20 05:41:43;;;;;;;17.37;15.33;;;-2.80;99.90;;;;;;5095943;28;20209;-62
2024/01/20 05:44:09;;;;;;;20.57;14.97;;;-2.80;99.90;;;;;;5095853;28;20177;-62
2024/01/20 05:46:35;;;;;;;22.73;13.83;;;-2.80;99.90;;;;;;5095150;28;20327;-60
2024/01/20 05:49:01;;;;;;;20.83;15.60;;;-2.80;99.90;;;;;;5095145;28;20204;-62
2024/01/20 05:51:26;;;;;;;17.50;15.20;;;-2.80;99.90;;;;;;5095132;28;20220;-62
2024/01/20 05:53:52;;;;;;;15.70;14.07;;;-2.80;99.90;;;;;;5095894;28;20173;-62
2024/01/20 05:56:20;;;;;;;17.23;15.40;;;-2.80;99.90;;;;;;5094138;28;20662;-62
2024/01/20 05:58:46;;;;;;;17.60;15.40;;;-2.80;99.90;;;;;;5094735;28;20520;-62
2024/01/20 06:01:12;;;;;;;19.17;15.10;;;-2.80;99.90;;;;;;5094770;28;20217;-62
2024/01/20 06:03:38;;;;;;;21.60;16.50;;;-2.90;99.90;;;;;;5096062;28;20181;-61
2024/01/20 06:06:05;;;;;;;19.33;14.97;;;-2.90;99.90;;;;;;5095170;28;20299;-61
2024/01/20 06:08:30;;;;;;;19.43;15.53;;;-2.80;99.90;;;;;;5095772;28;20193;-61
2024/01/20 06:10:56;;;;;;;19.70;14.83;;;-2.80;99.90;;;;;;5095153;28;20532;-62
2024/01/20 06:13:22;;;;;;;17.63;15.23;;;-2.80;99.90;;;;;;5095456;28;20176;-63
2024/01/20 06:15:47;;;;;;;17.10;15.20;;;-2.80;99.90;;;;;;5094755;28;20322;-62
2024/01/20 06:18:13;;;;;;;18.23;14.87;;;-2.70;99.90;;;;;;5095424;28;20201;-62
2024/01/20 06:20:39;;;;;;;22.23;15.43;;;-2.70;99.90;;;;;;5095183;28;20282;-62
2024/01/20 06:23:05;;;;;;;17.53;14.37;;;-2.70;99.90;;;;;;5095132;28;20180;-62
2024/01/20 06:25:31;;;;;;;19.07;14.70;;;-2.70;99.90;;;;;;5094581;28;20523;-62
2024/01/20 06:27:57;;;;;;;17.33;15.57;;;-2.70;99.90;;;;;;5094592;28;20189;-62
2024/01/20 06:30:23;;;;;;;16.87;15.10;;;-2.70;99.90;;;;;;5094159;28;20185;-62
2024/01/20 06:32:48;;;;;;;22.50;15.10;;;-2.70;99.90;;;;;;5094429;28;20216;-62
2024/01/20 06:35:14;;;;;;;20.50;14.80;;;-2.80;99.90;;;;;;5094698;28;20226;-61
2024/01/20 06:37:40;;;;;;;23.23;15.27;;;-2.80;99.90;;;;;;5094175;28;20193;-62
2024/01/20 06:40:06;;;;;;;16.07;14.23;;;-2.80;99.90;;;;;;5094486;28;20188;-61
2024/01/20 06:42:32;;;;;;;17.27;15.53;;;-2.90;99.90;;;;;;5092860;28;20243;-62
2024/01/20 06:44:58;;;;;;;16.53;14.67;;;-2.80;99.90;;;;;;5093823;28;20209;-62
2024/01/20 06:47:25;;;;;;;20.37;14.57;;;-2.80;99.90;;;;;;5094259;28;20314;-62
2024/01/20 06:49:53;;;;;;;16.47;14.40;;;-2.80;99.90;;;;;;5093975;28;20281;-62
2024/01/20 06:52:20;;;;;;;23.03;15.00;;;-2.80;99.90;;;;;;5093734;28;20195;-63
2024/01/20 06:54:46;;;;;;;16.93;13.80;;;-2.90;99.90;;;;;;5092683;28;20185;-62
2024/01/20 06:57:13;;;;;;;18.33;14.40;;;-2.90;99.90;;;;;;5093835;28;20212;-63
2024/01/20 06:59:38;;;;;;;18.07;14.13;;;-2.90;99.90;;;;;;5093807;28;20176;-62
2024/01/20 07:02:05;;;;;;;17.30;14.20;;;-2.90;99.90;;;;;;5093377;28;20205;-61
2024/01/20 07:04:31;;;;;;;15.63;14.03;;;-2.90;99.90;;;;;;5093744;28;20173;-62
2024/01/20 07:06:57;;;;;;;18.77;14.80;;;-3.00;99.90;;;;;;5093537;28;20272;-62
2024/01/20 07:09:23;;;;;;;21.07;15.00;;;-3.00;99.90;;;;;;5094536;28;20171;-62
2024/01/20 07:11:49;;;;;;;16.67;14.63;;;-3.00;99.90;;;;;;5092333;28;20194;-63
2024/01/20 07:14:15;;;;;;;19.37;14.17;;;-3.10;99.90;;;;;;5094125;28;20255;-63
2024/01/20 07:16:41;;;;;;;16.67;13.87;;;-3.10;99.90;;;;;;5093305;28;20212;-62
2024/01/20 07:19:07;;;;;;;15.80;14.20;;;-3.10;99.90;;;;;;5093371;28;20226;-62
2024/01/20 07:21:33;;;;;;;18.80;13.80;;;-3.10;99.90;;;;;;5093839;28;20196;-62
2024/01/20 07:23:58;;;;;;;16.80;15.00;;;-3.20;99.90;;;;;;5093726;28;20173;-62
2024/01/20 07:26:24;;;;;;;17.63;14.90;;;-3.10;99.90;;;;;;5093358;28;20173;-62
2024/01/20 07:28:50;;;;;;;21.83;15.17;;;-3.10;99.90;;;;;;5093588;28;20177;-62
2024/01/20 07:31:16;;;;;;;17.20;14.60;;;-3.10;99.90;;;;;;5092920;28;20242;-62
2024/01/20 07:33:42;;;;;;;20.63;16.27;;;-3.00;99.90;;;;;;5091941;28;20189;-63
2024/01/20 07:36:08;;;;;;;16.73;13.50;;;-3.00;99.90;;;;;;5093577;28;20246;-62
2024/01/20 07:38:34;;;;;;;19.47;15.73;;;-2.90;99.90;;;;;;5093251;28;20200;-61
2024/01/20 07:40:59;;;;;;;20.20;14.93;;;-3.00;99.90;;;;;;5091918;28;20204;-62
2024/01/20 07:43:25;;;;;;;19.30;14.83;;;-2.90;99.90;;;;;;5093125;28;20184;-62
2024/01/20 07:45:54;;;;;;;22.50;15.13;;;-2.90;99.90;;;;;;5092790;28;20268;-62
2024/01/20 07:48:23;;;;;;;18.73;15.23;;;-2.90;99.90;;;;;;5093286;28;20271;-62
2024/01/20 07:50:48;;;;;;;17.80;16.00;;;-2.80;99.90;;;;;;5093195;28;20204;-62
2024/01/20 07:53:14;;;;;;;18.03;14.83;;;-2.80;99.90;;;;;;5092961;28;20177;-62
2024/01/20 07:55:40;;;;;;;19.70;15.27;;;-2.80;99.90;;;;;;5093006;28;20550;-62
2024/01/20 07:58:06;;;;;;;19.30;15.63;;;-2.80;99.90;;;;;;5093006;28;20201;-62
2024/01/20 08:00:32;;;;;;;20.60;15.20;;;-2.80;99.90;;;;;;5093464;28;20224;-61
2024/01/20 08:02:57;;;;;;;18.43;15.60;;;-2.80;99.90;;;;;;5092990;28;20546;-62
2024/01/20 08:05:23;;;;;;;18.53;15.73;;;-2.80;99.90;;;;;;5091793;28;20177;-63
2024/01/20 08:07:49;;;;;;;18.60;14.53;;;-2.80;99.90;;;;;;5093115;28;20196;-62
2024/01/20 08:10:15;;;;;;;21.27;15.60;;;-2.80;99.90;;;;;;5093442;28;20551;-63
2024/01/20 08:12:41;;;;;;;22.37;15.73;;;-2.70;99.90;;;;;;5093954;28;20181;-62
2024/01/20 08:15:07;;;;;;;18.50;16.10;;;-2.70;99.90;;;;;;5092265;28;20182;-60
2024/01/20 08:17:33;;;;;;;18.63;16.10;;;-2.60;99.90;;;;;;5093738;28;20200;-62
2024/01/20 08:19:59;;;;;;;16.13;14.53;;;-2.50;99.90;;;;;;5095662;28;20169;-62
2024/01/20 08:22:25;;;;;;;20.53;16.20;;;-2.50;99.90;;;;;;5097640;28;20208;-63
2024/01/20 08:24:50;;;;;;;20.17;15.93;;;-2.50;99.90;;;;;;5097216;28;20521;-62
2024/01/20 08:27:16;;;;;;;17.40;15.57;;;-2.40;99.90;;;;;;5097446;28;20581;-62
2024/01/20 08:29:42;;;;;;;19.53;15.30;;;-2.40;99.90;;;;;;5097261;28;20525;-63
2024/01/20 08:32:07;;;;;;;20.70;16.90;;;-2.40;99.90;;;;;;5096644;28;20267;-62
2024/01/20 08:34:33;;;;;;;19.97;15.53;;;-2.30;99.90;;;;;;5097106;28;20646;-62
2024/01/20 08:36:59;;;;;;;19.50;16.80;;;-2.30;99.90;;;;;;5096851;28;20570;-62
2024/01/20 08:39:25;;;;;;;20.23;15.43;;;-2.30;99.90;;;;;;5097020;28;20173;-62
2024/01/20 08:41:50;;;;;;;16.97;15.13;;;-2.30;99.90;;;;;;5097438;28;20565;-62
2024/01/20 08:44:16;;;;;;;19.27;15.40;;;-2.20;99.90;;;;;;5096873;28;20645;-62
2024/01/20 08:46:42;;;;;;;16.10;14.40;;;-2.20;99.90;;;;;;5096702;28;20193;-62
2024/01/20 08:49:08;;;;;;;19.60;15.13;;;-2.20;99.90;;;;;;5097075;28;20264;-62
2024/01/20 08:51:33;;;;;;;19.83;16.00;;;-2.10;99.90;;;;;;5096951;28;20200;-62
2024/01/20 08:53:59;;;;;;;18.73;15.90;;;-2.10;99.90;;;;;;5097280;28;20230;-62
2024/01/20 08:56:25;;;;;;;20.40;14.83;;;-2.00;99.90;;;;;;5097290;28;20165;-62
2024/01/20 08:58:51;;;;;;;16.00;14.40;;;-2.00;99.90;;;;;;5096864;28;20177;-62
2024/01/20 09:01:17;;;;;;;20.47;15.27;;;-1.90;99.90;;;;;;5096217;28;20208;-62
2024/01/20 09:03:43;;;;;;;18.87;14.73;;;-1.90;92.40;;;;;;5096322;28;20260;-63
2024/01/20 09:06:12;;;;;;;22.03;15.40;;;-1.90;97.90;;;;;;5096134;28;20661;-62
2024/01/20 09:08:37;;;;;;;18.70;14.97;;;-1.80;80.10;;;;;;5094864;28;20624;-62
2024/01/20 09:11:03;;;;;;;16.87;15.07;;;-1.70;35.50;;;;;;5096226;28;20217;-62
2024/01/20 09:13:29;;;;;;;16.67;14.90;;;-1.70;12.10;;;;;;5096252;28;20177;-62
2024/01/20 09:15:55;;;;;;;16.47;14.87;;;-1.60;5.90;;;;;;5095662;28;20177;-63
2024/01/20 09:18:21;;;;;;;15.73;14.10;;;-1.50;1.00;;;;;;5096056;28;20610;-62
2024/01/20 09:20:46;;;;;;;16.87;15.10;;;-1.50;1.00;;;;;;5095703;28;20246;-62
2024/01/20 09:23:12;;;;;;;17.27;15.23;;;-1.50;1.00;;;;;;5095786;28;20191;-62
2024/01/20 09:25:38;;;;;;;17.20;15.50;;;-1.40;1.00;;;;;;5095962;28;20567;-62
2024/01/20 09:28:05;;;;;;;16.27;14.67;;;-1.30;1.00;;;;;;5094492;28;20197;-62
2024/01/20 09:30:31;;;;;;;16.03;14.50;;;-1.30;1.00;;;;;;5095042;28;20260;-62
2024/01/20 09:32:57;;;;;;;20.37;13.93;;;-1.20;1.00;;;;;;5095859;28;20264;-62
2024/01/20 09:35:23;;;;;;;16.77;14.87;;;-1.20;1.00;;;;;;5095489;28;20169;-62
2024/01/20 09:37:49;;;;;;;16.63;14.53;;;-1.10;1.00;;;;;;5095479;28;20193;-62
2024/01/20 09:40:19;;;;;;;20.20;15.00;;;-1.00;1.00;;;;;;5096049;28;20237;-62
2024/01/20 09:42:45;;;;;;;17.60;14.60;;;-1.00;1.00;;;;;;5095347;28;20657;-62
2024/01/20 09:45:12;;;;;;;16.13;14.57;;;-0.90;1.00;;;;;;5095601;28;20634;-62
2024/01/20 09:47:38;;;;;;;15.33;13.63;;;-0.90;1.00;;;;;;5094960;28;20193;-62
2024/01/20 09:50:04;;;;;;;16.10;14.40;;;-0.80;1.00;;;;;;5095737;28;20527;-62
2024/01/20 09:52:31;;;;;;;15.73;14.13;;;-0.70;1.00;;;;;;5094940;28;20206;-62
2024/01/20 09:55:23;;;;;;;14.63;13.13;;;-0.70;1.00;;;;;;5095633;28;20227;-63
2024/01/20 09:57:50;;;;;;;16.00;14.40;;;-0.60;1.00;;;;;;5095390;28;20200;-61
2024/01/20 10:00:16;;;;;;;15.27;13.60;;;-0.50;1.00;;;;;;5095228;28;20237;-62
2024/01/20 10:02:46;;;;;;;17.23;13.37;;;-0.40;1.00;;;;;;5094704;28;20235;-62
2024/01/20 10:05:13;;;;;;;14.00;12.63;;;-0.30;1.00;;;;;;5094935;28;20173;-62
2024/01/20 10:07:39;;;;;;;17.83;14.10;;;-0.20;1.00;;;;;;5094989;28;20658;-62
2024/01/20 10:10:17;;;;;;;14.33;12.87;;;-0.20;1.00;;;;;;5095155;28;20703;-62
2024/01/20 10:12:42;;;;;;;16.07;12.60;;;-0.10;1.00;;;;;;5094799;28;20173;-62
2024/01/20 10:15:08;;;;;;;16.93;13.10;;;-0.10;1.00;;;;;;5094717;28;20165;-61
2024/01/20 10:17:37;;;;;;;17.37;12.77;;;0.00;1.00;;;;;;5094413;28;20216;-62
2024/01/20 10:20:04;;;;;;;19.30;13.60;;;0.10;1.00;;;;;;5094634;28;20223;-61
2024/01/20 10:22:29;;;;;;;14.40;12.90;;;0.10;1.00;;;;;;5094483;28;20696;-62
2024/01/20 10:24:55;;;;;;;15.87;12.53;;;0.20;1.00;;;;;;5094802;28;20193;-63
2024/01/20 10:27:25;;;;;;;14.03;12.63;;;0.30;1.00;;;;;;5093098;28;20262;-62
2024/01/20 10:29:51;;;;;;;14.20;12.80;;;0.40;1.00;;;;;;5094456;28;20173;-62
2024/01/20 10:32:18;;;;;;;14.60;12.77;;;0.40;1.00;;;;;;5094194;28;20169;-62
2024/01/20 10:34:44;;;;;;;14.60;12.73;;;0.40;1.00;;;;;;5094340;28;20197;-62
2024/01/20 10:37:11;;;;;;;13.33;11.93;;;0.40;1.00;;;;;;5094406;28;20654;-62
2024/01/20 10:39:42;;;;;;;13.37;11.77;;;0.50;1.00;;;;;;5093027;28;20642;-62
2024/01/20 10:42:17;;;;;;;14.60;11.70;;;0.60;1.00;;;;;;5093436;28;20197;-63
2024/01/20 10:44:56;;;;;;;13.93;12.13;;;0.70;1.00;;;;;;5094500;28;20157;-62
2024/01/20 10:47:43;;;;;;;15.23;13.33;;;0.80;1.00;;;;;;5093941;28;20196;-61
2024/01/20 10:50:09;;;;;;;12.70;11.17;;;0.90;99.90;;;;;;5094249;28;20500;-62
2024/01/20 10:52:36;;;;;;;14.10;12.63;;;0.90;99.90;;;;;;5094128;28;20652;-62
2024/01/20 10:55:04;;;;;;;13.10;11.80;;;0.90;99.90;;;;;;5094256;28;20196;-61
2024/01/20 10:57:30;;;;;;;14.00;12.50;;;1.00;99.90;;;;;;5093941;28;20193;-61
2024/01/20 10:59:58;;;;;;;14.27;12.23;;;1.10;99.90;;;;;;5093804;28;20198;-63
2024/01/20 11:02:26;;;;;;;13.27;11.90;;;1.30;99.90;;;;;;5093872;28;20201;-61
2024/01/20 11:04:52;;;;;;;12.90;11.57;;;1.30;99.90;;;;;;5093147;28;20177;-62
2024/01/20 11:07:22;;;;;;;13.53;11.83;;;1.40;99.90;;;;;;5094056;28;20196;-62
2024/01/20 11:09:58;;;;;;;13.97;12.07;;;1.50;99.90;;;;;;5093853;28;20252;-61
2024/01/20 11:12:25;;;;;;;11.97;10.60;;;1.70;99.90;;;;;;5095117;28;20535;-62
2024/01/20 11:14:55;;;;;;;13.30;11.93;;;1.70;99.90;;;;;;5093728;28;20173;-61
2024/01/20 11:17:23;;;;;;;12.60;11.40;;;1.80;99.90;;;;;;5092047;28;20231;-62
2024/01/20 11:19:50;;;;;;;13.30;11.13;;;1.90;8.30;;;;;;5093866;28;20517;-61
2024/01/20 11:22:39;;;;;;;12.13;10.80;;;2.00;1.00;;;;;;5093459;28;20193;-61
2024/01/20 11:25:06;;;;;;;13.53;12.13;;;2.10;66.60;;;;;;5094248;28;20162;-62
2024/01/20 11:27:54;;;;;;;12.60;11.03;;;2.30;1.00;;;;;;5093910;28;20204;-62
2024/01/20 11:30:29;;;;;;;13.37;11.23;;;2.40;1.00;;;;;;5093618;28;20184;-63
2024/01/20 11:32:58;;;;;;;13.33;11.27;;;2.40;1.00;;;;;;5093213;28;20171;-62
2024/01/20 11:35:24;;;;;;;13.20;10.63;;;2.50;99.90;;;;;;5093964;28;20253;-61
2024/01/20 11:37:53;;;;;;;13.90;11.73;;;2.60;1.00;;;;;;5093607;28;20189;-63
2024/01/20 11:40:18;;;;;;;12.73;10.70;;;2.50;1.00;;;;;;5093362;28;20570;-60
2024/01/20 11:42:44;;;;;;;12.07;10.97;;;2.70;1.00;;;;;;5093281;28;20191;-61
2024/01/20 11:45:10;;;;;;;13.90;11.07;;;2.80;1.00;;;;;;5093311;28;20256;-61
2024/01/20 11:47:36;;;;;;;12.27;11.07;;;2.90;1.00;;;;;;5091712;28;20189;-62
2024/01/20 11:50:02;;;;;;;11.17;10.13;;;3.10;99.90;;;;;;5093507;28;20603;-61
2024/01/20 11:52:28;;;;;;;11.50;10.20;;;3.20;99.90;;;;;;5093111;28;20216;-61
2024/01/20 11:54:54;;;;;;;12.23;10.63;;;3.40;99.90;;;;;;5097037;28;20173;-61
2024/01/20 11:57:26;;;;;;;11.67;10.57;;;3.20;99.90;;;;;;5097676;28;20197;-61
2024/01/20 11:59:58;;;;;;;13.57;10.53;;;3.30;99.90;;;;;;5097395;28;20157;-61
2024/01/20 12:02:25;;;;;;;11.57;10.47;;;3.30;1.00;;;;;;5097512;28;20563;-61
2024/01/20 12:04:51;;;;;;;12.77;10.93;;;3.40;1.00;;;;;;5097268;28;20173;-62
2024/01/20 12:07:17;;;;;;;11.97;10.80;;;3.40;1.00;;;;;;5097322;28;20669;-62
2024/01/20 12:09:47;;;;;;;12.00;10.73;;;3.40;1.00;;;;;;5097186;28;20549;-62
2024/01/20 12:12:13;;;;;;;12.43;10.63;;;3.50;1.00;;;;;;5097219;28;20177;-61
2024/01/20 12:14:45;;;;;;;11.43;10.43;;;3.40;99.90;;;;;;5097530;28;20513;-62
2024/01/20 12:17:12;;;;;;;13.00;11.17;;;3.50;1.00;;;;;;5096964;28;20192;-62
2024/01/20 12:19:39;;;;;;;11.50;10.10;;;3.20;99.90;;;;;;5097119;28;20209;-62
2024/01/20 12:22:11;;;;;;;12.20;11.10;;;3.20;99.90;;;;;;5097126;28;20322;-61
2024/01/20 12:24:37;;;;;;;11.37;10.37;;;3.40;1.00;;;;;;5097508;28;20236;-61
2024/01/20 12:27:04;;;;;;;11.30;10.20;;;3.70;1.00;;;;;;5096798;28;20246;-62